Weather History for Gilze-Rijen, Netherlands

Change the Weather History Date:

Friday, November 2, 2012

  Actual Average Record
Temperature  
Mean Temperature 46 °F -  
Max Temperature 51 °F 47 °F 60 °F (2005)
Min Temperature 41 °F 37 °F 26 °F (1997)
Degree Days  
Heating Degree Days 19    
Moisture  
Dew Point 39 °F    
Average Humidity 82    
Maximum Humidity 100    
Minimum Humidity 62    
Precipitation  
Precipitation 0.00 in - - ()
Sea Level Pressure  
Sea Level Pressure 29.33 in    
Wind  
Wind Speed 12 mph ()    
Max Wind Speed 20 mph    
Max Gust Speed 31 mph    
Visibility 6.1 miles    
Events Rain    
Averages and records for this station are not official NWS values.
T = Trace of Precipitation, MM = Missing Value Source: Averaged Metar Reports

Daily Weather History Graph

Daily Weather History Graph

Search for Another Location

Airport:

Trip Planner

Search our weather history database for the weather conditions in past years. The results will help you decide how hot, cold, wet, or windy it might be!

Date:

Astronomy

Nov. 02, 2012 Rise Set
Actual Time 7:36 AM CET 5:10 PM CET
Civil Twilight 7:00 AM CET 5:46 PM CET
Nautical Twilight 6:21 AM CET 6:25 PM CET
Astronomical Twilight 5:42 AM CET 7:04 PM CET
Moon 7:28 PM CET (11/2) 11:00 AM CET (11/2)
Length of Visible Light 10h 45m
Length of Day
9h 34m
Waning Gibbous, 89% of the Moon is Illuminated
Nov 2
Waning Gibbous
Nov 7
Last Quarter
Nov 13
New
Nov 20
First Quarter
Nov 28
Full

Hourly Weather History & Observations

Time (CET) Temp. Windchill Dew Point Humidity Pressure Visibility Wind Dir Wind Speed Gust Speed Precip Events Conditions
12:16 AM 44.6 °F 39.2 °F 39.2 °F 81% 29.18 in 6.2 mi SSW 10.4 mph - N/A   Overcast
12:25 AM 44.6 °F 38.8 °F 39.2 °F 81% 29.18 in 6.2 mi SSW 11.5 mph - N/A   Mostly Cloudy
12:29 AM 44.6 °F 38.8 °F 39.2 °F 81% 29.18 in 6.2 mi SSW 11.5 mph - N/A   Mostly Cloudy
12:37 AM 44.6 °F 38.8 °F 39.2 °F 81% 29.18 in 6.2 mi SSW 11.5 mph - N/A   Mostly Cloudy
12:48 AM 44.6 °F 38.8 °F 39.2 °F 81% 29.18 in 6.2 mi SSW 11.5 mph - N/A   Mostly Cloudy
12:55 AM 44.6 °F 38.4 °F 39.2 °F 81% 29.18 in 6.2 mi SW 12.7 mph - N/A   Mostly Cloudy
1:10 AM 44.6 °F 38.1 °F 39.2 °F 81% 29.21 in 6.2 mi SW 13.8 mph - N/A   Mostly Cloudy
1:25 AM 44.6 °F 38.4 °F 39.2 °F 81% 29.21 in 6.2 mi SW 12.7 mph 26.5 mph N/A Rain Light Rain
1:29 AM 42.8 °F 36.2 °F 39.2 °F 87% 29.21 in 6.2 mi SW 12.7 mph 24.2 mph N/A Rain Light Rain Showers
1:33 AM 42.8 °F 36.2 °F 39.2 °F 87% 29.21 in 6.2 mi SW 12.7 mph 24.2 mph N/A Rain Light Rain Showers
1:37 AM 42.8 °F 36.6 °F 39.2 °F 87% 29.21 in 6.2 mi SW 11.5 mph - N/A Rain Light Rain
1:50 AM 42.8 °F 37.5 °F 41.0 °F 93% 29.21 in 6.2 mi SW 9.2 mph - N/A Rain Light Rain
1:55 AM 42.8 °F 37.0 °F 41.0 °F 93% 29.21 in 6.2 mi SW 10.4 mph - N/A Rain Light Rain
2:25 AM 41.0 °F 34.3 °F 39.2 °F 93% 29.24 in 6.2 mi SSW 11.5 mph - N/A   Overcast
2:55 AM 41.0 °F 33.5 °F 37.4 °F 87% 29.24 in 6.2 mi SSW 13.8 mph - N/A   Scattered Clouds
3:25 AM 41.0 °F 34.3 °F 37.4 °F 87% 29.27 in 6.2 mi SSW 11.5 mph - N/A   Scattered Clouds
3:29 AM 41.0 °F 34.3 °F 39.2 °F 93% 29.27 in 6.2 mi SSW 11.5 mph - N/A   Mostly Cloudy
3:30 AM 41.0 °F 34.3 °F 39.2 °F 93% 29.27 in 6.2 mi SW 11.5 mph - N/A   Mostly Cloudy
3:55 AM 41.0 °F 33.5 °F 37.4 °F 87% 29.27 in 6.2 mi SW 13.8 mph - N/A   Partly Cloudy
4:25 AM 41.0 °F 33.5 °F 37.4 °F 87% 29.27 in 6.2 mi SW 13.8 mph - N/A   Scattered Clouds
4:44 AM 42.8 °F 35.1 °F 37.4 °F 81% 29.27 in 6.2 mi SW 16.1 mph - N/A   Partly Cloudy
4:55 AM 42.8 °F 35.1 °F 37.4 °F 81% 29.30 in 6.2 mi SW 16.1 mph - N/A   Partly Cloudy
5:25 AM 41.0 °F 33.9 °F 37.4 °F 87% 29.30 in 6.2 mi SW 12.7 mph - N/A   Unknown
5:51 AM 42.8 °F 35.4 °F 37.4 °F 81% 29.30 in 6.2 mi SSW 15.0 mph - N/A   Scattered Clouds
5:55 AM 42.8 °F 35.8 °F 37.4 °F 81% 29.30 in 6.2 mi SSW 13.8 mph 25.3 mph N/A   Mostly Cloudy
5:58 AM 42.8 °F 35.8 °F 37.4 °F 81% 29.30 in 6.2 mi SSW 13.8 mph 25.3 mph N/A   Mostly Cloudy
6:17 AM 41.0 °F 33.5 °F 37.4 °F 87% 29.30 in 6.2 mi SSW 13.8 mph - N/A   Mostly Cloudy
6:25 AM 41.0 °F 33.5 °F 37.4 °F 87% 29.33 in 6.2 mi SSW 13.8 mph - N/A   Mostly Cloudy
6:39 AM 42.8 °F 35.4 °F 37.4 °F 81% 29.30 in 6.2 mi SSW 15.0 mph - N/A   Partly Cloudy
6:55 AM 42.8 °F 35.8 °F 37.4 °F 81% 29.30 in 6.2 mi SSW 13.8 mph 25.3 mph N/A   Scattered Clouds
7:01 AM 42.8 °F 35.8 °F 37.4 °F 81% 29.33 in 6.2 mi SSW 13.8 mph - N/A   Scattered Clouds
7:25 AM 42.8 °F 35.4 °F 37.4 °F 81% 29.33 in 6.2 mi SSW 15.0 mph - N/A   Overcast
7:55 AM 42.8 °F 35.1 °F 37.4 °F 81% 29.33 in 6.2 mi SSW 16.1 mph - N/A   Overcast
8:13 AM 42.8 °F 35.4 °F 37.4 °F 81% 29.33 in 6.2 mi SSW 15.0 mph - N/A   Mostly Cloudy
8:25 AM 42.8 °F 35.4 °F 37.4 °F 81% 29.33 in 6.2 mi SSW 15.0 mph - N/A   Overcast
8:38 AM 42.8 °F 35.1 °F 37.4 °F 81% 29.33 in 6.2 mi SW 16.1 mph - N/A   Mostly Cloudy
8:49 AM 44.6 °F 37.4 °F 37.4 °F 76% 29.33 in 6.2 mi SSW 16.1 mph - N/A   Mostly Cloudy
8:55 AM 44.6 °F 37.4 °F 37.4 °F 76% 29.36 in 6.2 mi SSW 16.1 mph - N/A   Mostly Cloudy
9:00 AM 44.6 °F 37.4 °F 37.4 °F 76% 29.36 in 6.2 mi SW 16.1 mph - N/A   Mostly Cloudy
9:06 AM 44.6 °F 37.4 °F 39.2 °F 81% 29.36 in 6.2 mi SSW 16.1 mph - N/A   Mostly Cloudy
9:08 AM 44.6 °F 37.4 °F 39.2 °F 81% 29.36 in 6.2 mi SSW 16.1 mph - N/A   Overcast
9:13 AM 44.6 °F 37.2 °F 39.2 °F 81% 29.36 in 6.2 mi SSW 17.3 mph - N/A   Overcast
9:25 AM 44.6 °F 37.4 °F 39.2 °F 81% 29.36 in 6.2 mi SW 16.1 mph - N/A   Mostly Cloudy
9:51 AM 46.4 °F 40.1 °F 39.2 °F 76% 29.36 in 6.2 mi SSW 15.0 mph - N/A   Mostly Cloudy
9:55 AM 46.4 °F 40.1 °F 39.2 °F 76% 29.36 in 6.2 mi SW 15.0 mph - N/A   Mostly Cloudy
10:01 AM 46.4 °F 40.7 °F 39.2 °F 76% 29.36 in 6.2 mi SW 12.7 mph 24.2 mph N/A   Overcast
10:25 AM 46.4 °F 39.2 °F 37.4 °F 71% 29.36 in 6.2 mi SW 18.4 mph 29.9 mph N/A   Scattered Clouds
10:39 AM 46.4 °F 40.1 °F 39.2 °F 76% 29.36 in 6.2 mi SW 15.0 mph - N/A   Mostly Cloudy
10:55 AM 46.4 °F 40.1 °F 39.2 °F 76% 29.39 in 6.2 mi SW 15.0 mph 28.8 mph N/A   Mostly Cloudy
11:13 AM 46.4 °F 40.1 °F 39.2 °F 76% 29.39 in 6.2 mi SSW 15.0 mph - N/A   Mostly Cloudy
11:17 AM 46.4 °F 40.1 °F 39.2 °F 76% 29.39 in 6.2 mi SSW 15.0 mph - N/A   Mostly Cloudy
11:25 AM 46.4 °F 40.1 °F 39.2 °F 76% 29.39 in 6.2 mi SSW 15.0 mph 26.5 mph N/A   Overcast
11:55 AM 48.2 °F - 39.2 °F 71% 29.39 in 6.2 mi SSW 17.3 mph - N/A   Mostly Cloudy
12:25 PM 48.2 °F - 39.2 °F 71% 29.39 in 6.2 mi SSW 17.3 mph 28.8 mph N/A   Scattered Clouds
12:32 PM 48.2 °F - 39.2 °F 71% 29.39 in 6.2 mi SSW 18.4 mph - N/A   Scattered Clouds
12:34 PM 48.2 °F - 39.2 °F 71% 29.39 in 6.2 mi SSW 18.4 mph - N/A   Scattered Clouds
12:44 PM 50.0 °F - 39.2 °F 66% 29.39 in 6.2 mi SSW 16.1 mph - N/A   Overcast
12:51 PM 48.2 °F - 39.2 °F 71% 29.39 in 6.2 mi SSW 18.4 mph 31.1 mph N/A   Overcast
12:55 PM 48.2 °F - 39.2 °F 71% 29.36 in 6.2 mi SSW 17.3 mph 31.1 mph N/A   Mostly Cloudy
1:25 PM 50.0 °F - 39.2 °F 66% 29.36 in 6.2 mi SSW 16.1 mph - N/A   Mostly Cloudy
1:55 PM 51.8 °F - 39.2 °F 62% 29.36 in 6.2 mi SSW 15.0 mph - N/A   Scattered Clouds
2:15 PM 51.8 °F - 39.2 °F 62% 29.36 in 6.2 mi SSW 15.0 mph - N/A   Mostly Cloudy
2:25 PM 50.0 °F - 37.4 °F 62% 29.36 in 6.2 mi SSW 15.0 mph - N/A   Mostly Cloudy
2:55 PM 50.0 °F - 39.2 °F 66% 29.36 in 6.2 mi SSW 13.8 mph - N/A   Overcast
2:58 PM 50.0 °F - 39.2 °F 66% 29.36 in 4.3 mi SSW 13.8 mph - N/A   Haze
3:04 PM 50.0 °F - 39.2 °F 66% 29.36 in 6.2 mi SSW 15.0 mph - N/A Rain Light Rain
3:17 PM 48.2 °F - 39.2 °F 71% 29.36 in 6.2 mi SSW 18.4 mph - N/A   Mostly Cloudy
3:25 PM 48.2 °F - 41.0 °F 76% 29.36 in 6.2 mi SSW 17.3 mph - N/A   Mostly Cloudy
3:29 PM 48.2 °F - 41.0 °F 76% 29.36 in 6.2 mi SSW 18.4 mph - N/A   Overcast
3:47 PM 48.2 °F - 41.0 °F 76% 29.36 in 6.2 mi SSW 19.6 mph - N/A   Overcast
3:55 PM 48.2 °F - 41.0 °F 76% 29.36 in 6.2 mi SSW 19.6 mph - N/A Rain Light Rain
4:20 PM 46.4 °F 39.2 °F 41.0 °F 81% 29.36 in 6.2 mi SSW 18.4 mph - N/A   Overcast
4:25 PM 46.4 °F 39.5 °F 41.0 °F 81% 29.36 in 6.2 mi SSW 17.3 mph - N/A   Overcast
4:46 PM 46.4 °F 39.5 °F 41.0 °F 81% 29.36 in 6.2 mi SSW 17.3 mph - N/A   Mostly Cloudy
4:50 PM 44.6 °F 37.2 °F 42.8 °F 93% 29.36 in 6.2 mi SSW 17.3 mph - N/A   Mostly Cloudy
4:55 PM 44.6 °F 37.4 °F 41.0 °F 87% 29.36 in 6.2 mi SSW 16.1 mph - N/A   Mostly Cloudy
5:25 PM 44.6 °F 38.4 °F 41.0 °F 87% 29.36 in 6.2 mi South 12.7 mph - N/A   Mostly Cloudy
5:55 PM 44.6 °F 38.8 °F 42.8 °F 93% 29.36 in 6.2 mi South 11.5 mph - N/A   Mostly Cloudy
5:59 PM 44.6 °F 39.2 °F 42.8 °F 93% 29.36 in 6.2 mi SSW 10.4 mph - N/A   Mostly Cloudy
6:05 PM 44.6 °F 39.7 °F 42.8 °F 93% 29.36 in 4.3 mi SSW 9.2 mph - N/A   Mostly Cloudy
6:09 PM 42.8 °F 37.0 °F 41.0 °F 93% 29.36 in 6.2 mi SW 10.4 mph - N/A Rain Rain Showers
6:18 PM 42.8 °F 37.0 °F 39.2 °F 87% 29.36 in 5.0 mi West 10.4 mph - N/A Rain Rain
6:25 PM 42.8 °F 38.6 °F 39.2 °F 87% 29.36 in 5.0 mi West 6.9 mph - N/A Rain Rain
6:38 PM 42.8 °F 39.3 °F 41.0 °F 93% 29.36 in 6.2 mi SSW 5.8 mph - N/A Rain Light Rain
6:55 PM 41.0 °F 36.4 °F 41.0 °F 100% 29.36 in 6.2 mi SSW 6.9 mph - N/A   Mostly Cloudy
7:25 PM 41.0 °F 37.1 °F 39.2 °F 93% 29.36 in 6.2 mi SSW 5.8 mph - N/A   Partly Cloudy
7:55 PM 41.0 °F 36.4 °F 39.2 °F 93% 29.39 in 6.2 mi SSW 6.9 mph - N/A   Partly Cloudy
8:25 PM 41.0 °F 35.8 °F 39.2 °F 93% 29.39 in 6.2 mi SSW 8.1 mph - N/A   Unknown
8:55 PM 41.0 °F 35.8 °F 39.2 °F 93% 29.39 in 6.2 mi SSW 8.1 mph - N/A   Unknown
9:25 PM 41.0 °F 35.8 °F 39.2 °F 93% 29.42 in 6.2 mi SSW 8.1 mph - N/A   Unknown
9:55 PM 41.0 °F 35.8 °F 39.2 °F 93% 29.42 in 6.2 mi SSW 8.1 mph - N/A   Unknown
10:25 PM 41.0 °F 35.2 °F 39.2 °F 93% 29.42 in 6.2 mi SW 9.2 mph - N/A   Mostly Cloudy
10:55 PM 41.0 °F 35.2 °F 39.2 °F 93% 29.44 in 6.2 mi SW 9.2 mph - N/A   Mostly Cloudy
11:25 PM 41.0 °F 35.2 °F 39.2 °F 93% 29.44 in 6.2 mi SW 9.2 mph - N/A   Overcast
11:55 PM 41.0 °F 35.2 °F 39.2 °F 93% 29.47 in 6.2 mi SSW 9.2 mph - N/A   Mostly Cloudy